Yatesville, Illinois
Current Conditions -  °F | °C
As of 4:35 AM on Monday 22 Dec 2014 (Local Time) from KIJX Reporting Station
Overcast Overcast  
Wind Chill: 32°   Ceiling: 4600
Heat Index: 39°   Visibility: 10mi
Dew Point: 33°   Wind: 12mph
Humidity: 80%   Direction: 110°ESE
Pressure: 29.83"   Gusts: NA
Location:  39.9123°N, 90.0575°W
Report Text: KIJX 221035Z AUTO 11010KT 10SM OVC046 04/01 A2983 RMK AO2 T00380006
Loading
Personal Weather Stations






























Interactive Weather Map New forecast layout! Learn more

10-Day Weather Forecast

Advertisements
Track Severe Weather on mobile